sensor_id;sensor_type;location;lat;lon;timestamp;pressure;altitude;pressure_sealevel;temperature;humidity
71956;BME280;59829;50.562;6.258;2023-12-14T00:07:41;94746.78;;;11.31;84.42
71956;BME280;59829;50.562;6.258;2023-12-14T00:17:41;94767.44;;;11.30;84.48
71956;BME280;59829;50.562;6.258;2023-12-14T00:27:41;94787.94;;;11.30;84.52
71956;BME280;59829;50.562;6.258;2023-12-14T00:37:42;94798.19;;;11.30;84.51
71956;BME280;59829;50.562;6.258;2023-12-14T00:47:42;94818.03;;;11.28;84.59
71956;BME280;59829;50.562;6.258;2023-12-14T00:57:42;94833.28;;;11.29;84.76
71956;BME280;59829;50.562;6.258;2023-12-14T01:07:45;94845.31;;;11.29;85.05
71956;BME280;59829;50.562;6.258;2023-12-14T01:17:46;94866.75;;;11.28;84.88
71956;BME280;59829;50.562;6.258;2023-12-14T01:27:46;94892.69;;;11.25;84.89
71956;BME280;59829;50.562;6.258;2023-12-14T01:37:46;94912.38;;;11.24;85.02
71956;BME280;59829;50.562;6.258;2023-12-14T01:47:47;94925.34;;;11.23;84.95
71956;BME280;59829;50.562;6.258;2023-12-14T01:57:48;94936.41;;;11.23;85.14
71956;BME280;59829;50.562;6.258;2023-12-14T02:07:48;94951.00;;;11.23;84.90
71956;BME280;59829;50.562;6.258;2023-12-14T02:17:50;94959.63;;;11.22;84.90
71956;BME280;59829;50.562;6.258;2023-12-14T02:27:51;94986.06;;;11.22;84.79
71956;BME280;59829;50.562;6.258;2023-12-14T02:37:51;94993.91;;;11.21;84.80
71956;BME280;59829;50.562;6.258;2023-12-14T02:47:52;95010.25;;;11.20;84.80
71956;BME280;59829;50.562;6.258;2023-12-14T02:57:54;95033.59;;;11.16;84.90
71956;BME280;59829;50.562;6.258;2023-12-14T03:07:54;95030.38;;;11.14;84.88
71956;BME280;59829;50.562;6.258;2023-12-14T03:17:54;95065.31;;;11.15;84.79
71956;BME280;59829;50.562;6.258;2023-12-14T03:27:55;95071.41;;;11.14;84.82
71956;BME280;59829;50.562;6.258;2023-12-14T03:37:55;95090.97;;;11.15;84.78
71956;BME280;59829;50.562;6.258;2023-12-14T03:47:55;95097.84;;;11.15;84.79
71956;BME280;59829;50.562;6.258;2023-12-14T03:57:55;95107.28;;;11.14;84.56
71956;BME280;59829;50.562;6.258;2023-12-14T04:07:56;95138.03;;;11.14;84.78
71956;BME280;59829;50.562;6.258;2023-12-14T04:17:56;95147.91;;;11.09;84.58
71956;BME280;59829;50.562;6.258;2023-12-14T04:27:56;95161.00;;;11.06;84.60
71956;BME280;59829;50.562;6.258;2023-12-14T04:37:56;95181.78;;;11.03;84.58
71956;BME280;59829;50.562;6.258;2023-12-14T04:47:57;95193.66;;;11.04;84.55
71956;BME280;59829;50.562;6.258;2023-12-14T04:57:57;95207.69;;;11.00;84.33
71956;BME280;59829;50.562;6.258;2023-12-14T05:07:57;95215.00;;;10.95;84.31
71956;BME280;59829;50.562;6.258;2023-12-14T05:17:58;95223.38;;;10.97;84.47
71956;BME280;59829;50.562;6.258;2023-12-14T05:27:58;95250.59;;;10.98;84.55
71956;BME280;59829;50.562;6.258;2023-12-14T05:37:58;95250.88;;;10.95;84.41
71956;BME280;59829;50.562;6.258;2023-12-14T05:47:58;95269.78;;;10.94;84.24
71956;BME280;59829;50.562;6.258;2023-12-14T05:57:59;95293.88;;;10.92;84.25
71956;BME280;59829;50.562;6.258;2023-12-14T06:07:59;95311.81;;;10.92;84.10
71956;BME280;59829;50.562;6.258;2023-12-14T06:17:59;95338.25;;;10.92;84.12
71956;BME280;59829;50.562;6.258;2023-12-14T06:28:00;95360.66;;;10.90;84.00
71956;BME280;59829;50.562;6.258;2023-12-14T06:38:00;95386.53;;;10.87;83.64
71956;BME280;59829;50.562;6.258;2023-12-14T06:48:00;95397.06;;;10.84;83.45
71956;BME280;59829;50.562;6.258;2023-12-14T06:58:00;95414.88;;;10.85;83.42
71956;BME280;59829;50.562;6.258;2023-12-14T07:08:01;95437.13;;;10.85;83.38
71956;BME280;59829;50.562;6.258;2023-12-14T07:18:01;95456.94;;;10.83;83.03
71956;BME280;59829;50.562;6.258;2023-12-14T07:28:01;95484.47;;;10.81;83.30
71956;BME280;59829;50.562;6.258;2023-12-14T07:38:02;95494.16;;;10.77;83.05
71956;BME280;59829;50.562;6.258;2023-12-14T07:48:03;95505.47;;;10.75;82.99
71956;BME280;59829;50.562;6.258;2023-12-14T07:58:04;95521.09;;;10.72;82.84
71956;BME280;59829;50.562;6.258;2023-12-14T08:08:04;95540.66;;;10.73;82.86
71956;BME280;59829;50.562;6.258;2023-12-14T08:18:04;95559.53;;;10.72;82.87
71956;BME280;59829;50.562;6.258;2023-12-14T08:28:05;95592.81;;;10.72;82.80
71956;BME280;59829;50.562;6.258;2023-12-14T08:38:05;95620.59;;;10.67;82.16
71956;BME280;59829;50.562;6.258;2023-12-14T08:48:05;95627.16;;;10.60;82.09
71956;BME280;59829;50.562;6.258;2023-12-14T08:58:06;95648.81;;;10.55;81.77
71956;BME280;59829;50.562;6.258;2023-12-14T09:08:06;95655.81;;;10.53;81.75
71956;BME280;59829;50.562;6.258;2023-12-14T09:18:06;95671.44;;;10.50;81.21
71956;BME280;59829;50.562;6.258;2023-12-14T09:28:07;95686.81;;;10.50;81.14
71956;BME280;59829;50.562;6.258;2023-12-14T09:38:07;95700.31;;;10.52;81.04
71956;BME280;59829;50.562;6.258;2023-12-14T09:48:09;95705.69;;;10.49;80.97
71956;BME280;59829;50.562;6.258;2023-12-14T09:58:10;95715.00;;;10.50;80.86
71956;BME280;59829;50.562;6.258;2023-12-14T10:08:11;95740.16;;;10.45;80.61
71956;BME280;59829;50.562;6.258;2023-12-14T10:18:14;95762.53;;;10.43;80.30
71956;BME280;59829;50.562;6.258;2023-12-14T10:28:17;95767.88;;;10.40;80.39
71956;BME280;59829;50.562;6.258;2023-12-14T10:38:18;95781.38;;;10.42;80.47
71956;BME280;59829;50.562;6.258;2023-12-14T10:48:20;95795.94;;;10.42;80.26
71956;BME280;59829;50.562;6.258;2023-12-14T10:58:20;95808.75;;;10.42;80.26
71956;BME280;59829;50.562;6.258;2023-12-14T11:08:21;95823.38;;;10.40;79.99
71956;BME280;59829;50.562;6.258;2023-12-14T11:18:23;95832.81;;;10.39;80.08
71956;BME280;59829;50.562;6.258;2023-12-14T11:28:25;95846.78;;;10.35;80.06
71956;BME280;59829;50.562;6.258;2023-12-14T11:38:28;95863.78;;;10.36;79.94
71956;BME280;59829;50.562;6.258;2023-12-14T11:48:36;95862.16;;;10.35;79.66
71956;BME280;59829;50.562;6.258;2023-12-14T11:58:54;95864.84;;;10.34;79.74
71956;BME280;59829;50.562;6.258;2023-12-14T12:09:00;95865.91;;;10.31;79.28
71956;BME280;59829;50.562;6.258;2023-12-14T12:19:00;95867.53;;;10.32;79.30
71956;BME280;59829;50.562;6.258;2023-12-14T12:29:00;95878.25;;;10.26;78.79
71956;BME280;59829;50.562;6.258;2023-12-14T12:39:03;95888.47;;;10.15;78.45
71956;BME280;59829;50.562;6.258;2023-12-14T12:49:06;95902.88;;;10.05;78.27
71956;BME280;59829;50.562;6.258;2023-12-14T12:59:06;95925.09;;;10.04;78.22
71956;BME280;59829;50.562;6.258;2023-12-14T13:09:07;95927.78;;;10.03;78.17
71956;BME280;59829;50.562;6.258;2023-12-14T13:19:08;95927.09;;;10.01;78.01
71956;BME280;59829;50.562;6.258;2023-12-14T13:29:09;95948.47;;;10.00;77.80
71956;BME280;59829;50.562;6.258;2023-12-14T13:39:10;95957.81;;;9.89;77.45
71956;BME280;59829;50.562;6.258;2023-12-14T13:49:11;95983.81;;;9.83;77.38
71956;BME280;59829;50.562;6.258;2023-12-14T13:59:12;95999.16;;;9.83;77.06
71956;BME280;59829;50.562;6.258;2023-12-14T14:09:12;96020.22;;;9.87;77.11
71956;BME280;59829;50.562;6.258;2023-12-14T14:19:12;96029.44;;;9.89;76.96
71956;BME280;59829;50.562;6.258;2023-12-14T14:29:13;96050.00;;;9.88;76.82
71956;BME280;59829;50.562;6.258;2023-12-14T14:39:13;96068.25;;;9.83;76.80
71956;BME280;59829;50.562;6.258;2023-12-14T14:49:13;96099.19;;;9.80;76.70
71956;BME280;59829;50.562;6.258;2023-12-14T14:59:14;96116.38;;;9.78;76.44
71956;BME280;59829;50.562;6.258;2023-12-14T15:09:15;96115.47;;;9.79;76.28
71956;BME280;59829;50.562;6.258;2023-12-14T15:19:15;96128.94;;;9.81;76.13
71956;BME280;59829;50.562;6.258;2023-12-14T15:29:16;96151.06;;;9.82;76.48
71956;BME280;59829;50.562;6.258;2023-12-14T15:39:16;96165.38;;;9.85;76.46
71956;BME280;59829;50.562;6.258;2023-12-14T15:49:17;96178.03;;;9.86;76.17
71956;BME280;59829;50.562;6.258;2023-12-14T15:59:17;96190.84;;;9.86;76.09
71956;BME280;59829;50.562;6.258;2023-12-14T16:09:18;96206.00;;;9.89;76.32
71956;BME280;59829;50.562;6.258;2023-12-14T16:19:18;96212.84;;;9.89;76.23
71956;BME280;59829;50.562;6.258;2023-12-14T16:29:20;96225.53;;;9.90;76.05
71956;BME280;59829;50.562;6.258;2023-12-14T16:39:21;96247.75;;;9.90;76.05
71956;BME280;59829;50.562;6.258;2023-12-14T16:49:21;96261.56;;;9.87;76.01
71956;BME280;59829;50.562;6.258;2023-12-14T16:59:22;96267.41;;;9.89;76.01
71956;BME280;59829;50.562;6.258;2023-12-14T17:09:22;96282.66;;;9.91;76.07
71956;BME280;59829;50.562;6.258;2023-12-14T17:19:23;96297.19;;;9.90;76.07
71956;BME280;59829;50.562;6.258;2023-12-14T17:29:23;96297.28;;;9.89;75.81
71956;BME280;59829;50.562;6.258;2023-12-14T17:39:24;96323.72;;;9.89;75.79
71956;BME280;59829;50.562;6.258;2023-12-14T17:49:25;96344.25;;;9.88;75.88
71956;BME280;59829;50.562;6.258;2023-12-14T17:59:25;96348.38;;;9.90;75.99
71956;BME280;59829;50.562;6.258;2023-12-14T18:09:25;96353.28;;;9.93;75.97
71956;BME280;59829;50.562;6.258;2023-12-14T18:19:26;96363.53;;;9.93;76.08
71956;BME280;59829;50.562;6.258;2023-12-14T18:29:27;96384.00;;;9.93;76.08
71956;BME280;59829;50.562;6.258;2023-12-14T18:39:28;96402.63;;;9.95;76.14
71956;BME280;59829;50.562;6.258;2023-12-14T18:49:28;96427.50;;;9.93;76.01
71956;BME280;59829;50.562;6.258;2023-12-14T18:59:28;96437.63;;;9.95;76.38
71956;BME280;59829;50.562;6.258;2023-12-14T19:09:28;96450.22;;;9.98;76.35
71956;BME280;59829;50.562;6.258;2023-12-14T19:19:29;96462.91;;;10.00;76.44
71956;BME280;59829;50.562;6.258;2023-12-14T19:29:29;96476.63;;;9.98;76.37
71956;BME280;59829;50.562;6.258;2023-12-14T19:39:30;96482.66;;;9.97;76.28
71956;BME280;59829;50.562;6.258;2023-12-14T19:49:33;96479.41;;;9.95;76.16
71956;BME280;59829;50.562;6.258;2023-12-14T19:59:34;96487.78;;;9.97;76.30
71956;BME280;59829;50.562;6.258;2023-12-14T20:09:38;96498.75;;;10.00;76.44
71956;BME280;59829;50.562;6.258;2023-12-14T20:19:38;96496.19;;;10.00;76.42
71956;BME280;59829;50.562;6.258;2023-12-14T20:29:39;96498.63;;;10.01;76.44
71956;BME280;59829;50.562;6.258;2023-12-14T20:39:40;96518.28;;;10.01;76.68
71956;BME280;59829;50.562;6.258;2023-12-14T20:49:40;96517.38;;;10.02;76.68
71956;BME280;59829;50.562;6.258;2023-12-14T20:59:40;96545.41;;;10.03;76.71
71956;BME280;59829;50.562;6.258;2023-12-14T21:09:41;96558.53;;;9.98;76.59
71956;BME280;59829;50.562;6.258;2023-12-14T21:19:49;96561.41;;;9.94;76.58
71956;BME280;59829;50.562;6.258;2023-12-14T21:29:49;96575.38;;;9.88;76.60
71956;BME280;59829;50.562;6.258;2023-12-14T21:39:50;96577.34;;;9.85;76.45
71956;BME280;59829;50.562;6.258;2023-12-14T21:49:50;96591.97;;;9.83;76.45
71956;BME280;59829;50.562;6.258;2023-12-14T21:59:50;96613.47;;;9.80;76.51
71956;BME280;59829;50.562;6.258;2023-12-14T22:09:51;96613.66;;;9.77;76.40
71956;BME280;59829;50.562;6.258;2023-12-14T22:19:52;96621.53;;;9.74;76.38
71956;BME280;59829;50.562;6.258;2023-12-14T22:29:52;96633.59;;;9.72;76.07
71956;BME280;59829;50.562;6.258;2023-12-14T22:39:52;96655.63;;;9.75;76.32
71956;BME280;59829;50.562;6.258;2023-12-14T22:49:53;96658.06;;;9.76;76.12
71956;BME280;59829;50.562;6.258;2023-12-14T22:59:53;96673.44;;;9.76;76.27
71956;BME280;59829;50.562;6.258;2023-12-14T23:09:53;96661.81;;;9.71;76.12
71956;BME280;59829;50.562;6.258;2023-12-14T23:19:54;96674.53;;;9.72;76.20
71956;BME280;59829;50.562;6.258;2023-12-14T23:29:54;96690.63;;;9.74;75.99
71956;BME280;59829;50.562;6.258;2023-12-14T23:39:54;96700.84;;;9.74;76.11
71956;BME280;59829;50.562;6.258;2023-12-14T23:49:55;96713.09;;;9.69;75.88
71956;BME280;59829;50.562;6.258;2023-12-14T23:59:55;96708.56;;;9.60;75.82
